sensor_id;sensor_type;location;lat;lon;timestamp;P1;durP1;ratioP1;P2;durP2;ratioP2
78298;SDS011;67556;55.656;12.590;2024-03-07T00:02:18;5.53;;;3.50;;
78298;SDS011;67556;55.656;12.590;2024-03-07T00:04:45;5.95;;;3.72;;
78298;SDS011;67556;55.656;12.590;2024-03-07T00:07:13;5.65;;;3.78;;
78298;SDS011;67556;55.656;12.590;2024-03-07T00:09:42;7.03;;;3.83;;
78298;SDS011;67556;55.656;12.590;2024-03-07T00:12:10;6.97;;;3.97;;
78298;SDS011;67556;55.656;12.590;2024-03-07T00:14:37;5.60;;;3.72;;
78298;SDS011;67556;55.656;12.590;2024-03-07T00:17:03;7.57;;;4.10;;
78298;SDS011;67556;55.656;12.590;2024-03-07T00:19:32;6.93;;;4.25;;
78298;SDS011;67556;55.656;12.590;2024-03-07T00:22:00;8.05;;;5.05;;
78298;SDS011;67556;55.656;12.590;2024-03-07T00:24:29;8.02;;;3.67;;
78298;SDS011;67556;55.656;12.590;2024-03-07T00:27:00;4.85;;;3.63;;
78298;SDS011;67556;55.656;12.590;2024-03-07T00:29:26;7.63;;;3.60;;
78298;SDS011;67556;55.656;12.590;2024-03-07T00:31:55;5.63;;;3.85;;
78298;SDS011;67556;55.656;12.590;2024-03-07T00:34:23;6.30;;;3.50;;
78298;SDS011;67556;55.656;12.590;2024-03-07T00:36:49;4.70;;;3.75;;
78298;SDS011;67556;55.656;12.590;2024-03-07T00:39:23;6.40;;;3.83;;
78298;SDS011;67556;55.656;12.590;2024-03-07T00:41:53;5.60;;;3.85;;
78298;SDS011;67556;55.656;12.590;2024-03-07T00:44:21;4.80;;;3.53;;
78298;SDS011;67556;55.656;12.590;2024-03-07T00:46:47;5.22;;;3.67;;
78298;SDS011;67556;55.656;12.590;2024-03-07T00:49:16;6.25;;;3.70;;
78298;SDS011;67556;55.656;12.590;2024-03-07T00:51:42;5.05;;;4.07;;
78298;SDS011;67556;55.656;12.590;2024-03-07T00:54:15;6.15;;;4.07;;
78298;SDS011;67556;55.656;12.590;2024-03-07T00:56:43;7.60;;;3.85;;
78298;SDS011;67556;55.656;12.590;2024-03-07T00:59:12;7.10;;;4.38;;
78298;SDS011;67556;55.656;12.590;2024-03-07T01:01:48;7.65;;;4.22;;
78298;SDS011;67556;55.656;12.590;2024-03-07T01:04:15;7.43;;;3.92;;
78298;SDS011;67556;55.656;12.590;2024-03-07T01:06:43;6.22;;;4.35;;
78298;SDS011;67556;55.656;12.590;2024-03-07T01:09:11;6.13;;;3.88;;
78298;SDS011;67556;55.656;12.590;2024-03-07T01:11:42;8.65;;;4.82;;
78298;SDS011;67556;55.656;12.590;2024-03-07T01:14:09;5.47;;;4.18;;
78298;SDS011;67556;55.656;12.590;2024-03-07T01:16:42;5.97;;;4.38;;
78298;SDS011;67556;55.656;12.590;2024-03-07T01:19:16;7.45;;;4.60;;
78298;SDS011;67556;55.656;12.590;2024-03-07T01:21:43;6.50;;;3.90;;
78298;SDS011;67556;55.656;12.590;2024-03-07T01:24:10;6.20;;;4.38;;
78298;SDS011;67556;55.656;12.590;2024-03-07T01:26:37;9.65;;;4.38;;
78298;SDS011;67556;55.656;12.590;2024-03-07T01:29:12;7.03;;;4.47;;
78298;SDS011;67556;55.656;12.590;2024-03-07T01:31:39;7.90;;;4.45;;
78298;SDS011;67556;55.656;12.590;2024-03-07T01:34:06;8.43;;;4.50;;
78298;SDS011;67556;55.656;12.590;2024-03-07T01:36:36;7.57;;;4.70;;
78298;SDS011;67556;55.656;12.590;2024-03-07T01:39:04;8.18;;;4.57;;
78298;SDS011;67556;55.656;12.590;2024-03-07T01:41:31;7.70;;;4.05;;
78298;SDS011;67556;55.656;12.590;2024-03-07T01:44:00;6.10;;;4.30;;
78298;SDS011;67556;55.656;12.590;2024-03-07T01:46:27;6.78;;;4.93;;
78298;SDS011;67556;55.656;12.590;2024-03-07T01:49:08;6.70;;;4.43;;
78298;SDS011;67556;55.656;12.590;2024-03-07T01:51:37;7.40;;;4.72;;
78298;SDS011;67556;55.656;12.590;2024-03-07T01:54:07;8.73;;;5.05;;
78298;SDS011;67556;55.656;12.590;2024-03-07T01:56:34;5.63;;;4.10;;
78298;SDS011;67556;55.656;12.590;2024-03-07T01:59:07;6.97;;;4.30;;
78298;SDS011;67556;55.656;12.590;2024-03-07T02:01:34;7.40;;;4.05;;
78298;SDS011;67556;55.656;12.590;2024-03-07T02:04:04;7.43;;;4.32;;
78298;SDS011;67556;55.656;12.590;2024-03-07T02:06:31;7.50;;;4.90;;
78298;SDS011;67556;55.656;12.590;2024-03-07T02:09:00;8.15;;;4.72;;
78298;SDS011;67556;55.656;12.590;2024-03-07T02:11:31;6.72;;;4.38;;
78298;SDS011;67556;55.656;12.590;2024-03-07T02:14:04;7.05;;;3.92;;
78298;SDS011;67556;55.656;12.590;2024-03-07T02:16:38;8.35;;;4.90;;
78298;SDS011;67556;55.656;12.590;2024-03-07T02:19:14;8.95;;;4.70;;
78298;SDS011;67556;55.656;12.590;2024-03-07T02:21:46;7.57;;;4.47;;
78298;SDS011;67556;55.656;12.590;2024-03-07T02:24:30;6.55;;;4.55;;
78298;SDS011;67556;55.656;12.590;2024-03-07T02:26:58;6.28;;;4.68;;
78298;SDS011;67556;55.656;12.590;2024-03-07T02:29:25;6.70;;;4.75;;
78298;SDS011;67556;55.656;12.590;2024-03-07T02:31:54;6.65;;;4.18;;
78298;SDS011;67556;55.656;12.590;2024-03-07T02:34:21;7.10;;;4.07;;
78298;SDS011;67556;55.656;12.590;2024-03-07T02:36:55;8.60;;;4.70;;
78298;SDS011;67556;55.656;12.590;2024-03-07T02:39:22;6.82;;;4.18;;
78298;SDS011;67556;55.656;12.590;2024-03-07T02:41:49;7.25;;;4.68;;
78298;SDS011;67556;55.656;12.590;2024-03-07T02:44:18;6.82;;;4.75;;
78298;SDS011;67556;55.656;12.590;2024-03-07T02:46:45;8.02;;;4.40;;
78298;SDS011;67556;55.656;12.590;2024-03-07T02:49:12;8.45;;;4.97;;
78298;SDS011;67556;55.656;12.590;2024-03-07T02:51:39;6.30;;;4.57;;
78298;SDS011;67556;55.656;12.590;2024-03-07T02:54:10;6.88;;;4.57;;
78298;SDS011;67556;55.656;12.590;2024-03-07T02:56:38;8.55;;;4.68;;
78298;SDS011;67556;55.656;12.590;2024-03-07T02:59:05;8.45;;;5.32;;
78298;SDS011;67556;55.656;12.590;2024-03-07T03:01:33;10.80;;;5.65;;
78298;SDS011;67556;55.656;12.590;2024-03-07T03:04:00;10.60;;;6.55;;
78298;SDS011;67556;55.656;12.590;2024-03-07T03:06:27;11.07;;;7.07;;
78298;SDS011;67556;55.656;12.590;2024-03-07T03:08:54;11.93;;;6.60;;
78298;SDS011;67556;55.656;12.590;2024-03-07T03:11:34;10.52;;;5.75;;
78298;SDS011;67556;55.656;12.590;2024-03-07T03:14:00;8.60;;;5.72;;
78298;SDS011;67556;55.656;12.590;2024-03-07T03:16:34;7.72;;;5.28;;
78298;SDS011;67556;55.656;12.590;2024-03-07T03:19:03;9.82;;;5.68;;
78298;SDS011;67556;55.656;12.590;2024-03-07T03:21:30;9.80;;;5.55;;
78298;SDS011;67556;55.656;12.590;2024-03-07T03:24:00;9.30;;;5.38;;
78298;SDS011;67556;55.656;12.590;2024-03-07T03:26:27;6.97;;;5.05;;
78298;SDS011;67556;55.656;12.590;2024-03-07T03:28:56;7.45;;;5.13;;
78298;SDS011;67556;55.656;12.590;2024-03-07T03:31:24;7.03;;;5.05;;
78298;SDS011;67556;55.656;12.590;2024-03-07T03:33:57;8.10;;;5.15;;
78298;SDS011;67556;55.656;12.590;2024-03-07T03:36:24;7.50;;;4.95;;
78298;SDS011;67556;55.656;12.590;2024-03-07T03:38:51;7.05;;;4.78;;
78298;SDS011;67556;55.656;12.590;2024-03-07T03:41:18;8.90;;;4.72;;
78298;SDS011;67556;55.656;12.590;2024-03-07T03:43:45;8.13;;;5.60;;
78298;SDS011;67556;55.656;12.590;2024-03-07T03:46:15;7.40;;;4.97;;
78298;SDS011;67556;55.656;12.590;2024-03-07T03:48:41;8.48;;;5.03;;
78298;SDS011;67556;55.656;12.590;2024-03-07T03:51:08;7.47;;;4.57;;
78298;SDS011;67556;55.656;12.590;2024-03-07T03:53:34;8.60;;;4.93;;
78298;SDS011;67556;55.656;12.590;2024-03-07T03:56:01;9.02;;;5.38;;
78298;SDS011;67556;55.656;12.590;2024-03-07T03:58:30;10.15;;;5.18;;
78298;SDS011;67556;55.656;12.590;2024-03-07T04:03:30;7.93;;;5.03;;
78298;SDS011;67556;55.656;12.590;2024-03-07T04:05:59;8.52;;;5.68;;
78298;SDS011;67556;55.656;12.590;2024-03-07T04:08:26;7.32;;;5.32;;
78298;SDS011;67556;55.656;12.590;2024-03-07T04:10:53;9.20;;;5.32;;
78298;SDS011;67556;55.656;12.590;2024-03-07T04:13:20;10.55;;;6.18;;
78298;SDS011;67556;55.656;12.590;2024-03-07T04:15:48;8.75;;;5.55;;
78298;SDS011;67556;55.656;12.590;2024-03-07T04:18:14;9.70;;;5.55;;
78298;SDS011;67556;55.656;12.590;2024-03-07T04:20:42;11.48;;;6.00;;
78298;SDS011;67556;55.656;12.590;2024-03-07T04:23:10;10.20;;;6.13;;
78298;SDS011;67556;55.656;12.590;2024-03-07T04:25:37;14.38;;;7.05;;
78298;SDS011;67556;55.656;12.590;2024-03-07T04:28:03;13.27;;;6.90;;
78298;SDS011;67556;55.656;12.590;2024-03-07T04:30:31;11.05;;;6.75;;
78298;SDS011;67556;55.656;12.590;2024-03-07T04:32:58;10.95;;;6.88;;
78298;SDS011;67556;55.656;12.590;2024-03-07T04:35:26;11.52;;;6.05;;
78298;SDS011;67556;55.656;12.590;2024-03-07T04:37:55;11.13;;;6.35;;
78298;SDS011;67556;55.656;12.590;2024-03-07T04:40:23;13.15;;;6.90;;
78298;SDS011;67556;55.656;12.590;2024-03-07T04:42:50;11.70;;;7.05;;
78298;SDS011;67556;55.656;12.590;2024-03-07T04:45:16;11.77;;;6.60;;
78298;SDS011;67556;55.656;12.590;2024-03-07T04:47:44;11.90;;;6.63;;
78298;SDS011;67556;55.656;12.590;2024-03-07T04:50:11;8.18;;;5.55;;
78298;SDS011;67556;55.656;12.590;2024-03-07T04:52:38;11.70;;;5.57;;
78298;SDS011;67556;55.656;12.590;2024-03-07T04:55:08;9.63;;;5.43;;
78298;SDS011;67556;55.656;12.590;2024-03-07T04:57:37;10.95;;;5.78;;
78298;SDS011;67556;55.656;12.590;2024-03-07T05:00:05;10.07;;;5.72;;
78298;SDS011;67556;55.656;12.590;2024-03-07T05:02:32;9.30;;;6.13;;
78298;SDS011;67556;55.656;12.590;2024-03-07T05:04:59;7.55;;;5.80;;
78298;SDS011;67556;55.656;12.590;2024-03-07T05:07:27;10.85;;;6.20;;
78298;SDS011;67556;55.656;12.590;2024-03-07T05:09:53;9.27;;;5.40;;
78298;SDS011;67556;55.656;12.590;2024-03-07T05:12:23;8.98;;;5.97;;
78298;SDS011;67556;55.656;12.590;2024-03-07T05:14:50;8.43;;;5.40;;
78298;SDS011;67556;55.656;12.590;2024-03-07T05:17:18;9.85;;;5.63;;
78298;SDS011;67556;55.656;12.590;2024-03-07T05:19:44;9.93;;;5.65;;
78298;SDS011;67556;55.656;12.590;2024-03-07T05:22:13;7.85;;;5.35;;
78298;SDS011;67556;55.656;12.590;2024-03-07T05:24:42;9.18;;;5.22;;
78298;SDS011;67556;55.656;12.590;2024-03-07T05:27:11;7.90;;;5.28;;
78298;SDS011;67556;55.656;12.590;2024-03-07T05:29:40;8.50;;;5.32;;
78298;SDS011;67556;55.656;12.590;2024-03-07T05:32:20;10.63;;;5.68;;
78298;SDS011;67556;55.656;12.590;2024-03-07T05:34:46;8.00;;;5.18;;
78298;SDS011;67556;55.656;12.590;2024-03-07T05:37:14;9.75;;;5.68;;
78298;SDS011;67556;55.656;12.590;2024-03-07T05:39:41;8.20;;;5.70;;
78298;SDS011;67556;55.656;12.590;2024-03-07T05:42:07;8.45;;;5.10;;
78298;SDS011;67556;55.656;12.590;2024-03-07T05:44:40;8.23;;;5.18;;
78298;SDS011;67556;55.656;12.590;2024-03-07T05:47:07;10.38;;;5.85;;
78298;SDS011;67556;55.656;12.590;2024-03-07T05:49:36;11.93;;;5.85;;
78298;SDS011;67556;55.656;12.590;2024-03-07T05:52:03;9.15;;;5.53;;
78298;SDS011;67556;55.656;12.590;2024-03-07T05:54:30;8.98;;;5.60;;
78298;SDS011;67556;55.656;12.590;2024-03-07T05:56:57;10.20;;;6.18;;
78298;SDS011;67556;55.656;12.590;2024-03-07T05:59:25;7.45;;;5.03;;
78298;SDS011;67556;55.656;12.590;2024-03-07T06:01:53;8.50;;;5.55;;
78298;SDS011;67556;55.656;12.590;2024-03-07T06:04:20;10.45;;;5.65;;
78298;SDS011;67556;55.656;12.590;2024-03-07T06:06:48;9.55;;;6.03;;
78298;SDS011;67556;55.656;12.590;2024-03-07T06:09:16;9.90;;;5.70;;
78298;SDS011;67556;55.656;12.590;2024-03-07T06:11:48;9.80;;;6.03;;
78298;SDS011;67556;55.656;12.590;2024-03-07T06:14:21;8.50;;;5.00;;
78298;SDS011;67556;55.656;12.590;2024-03-07T06:16:50;10.60;;;5.60;;
78298;SDS011;67556;55.656;12.590;2024-03-07T06:19:19;8.73;;;5.72;;
78298;SDS011;67556;55.656;12.590;2024-03-07T06:21:47;9.63;;;5.78;;
78298;SDS011;67556;55.656;12.590;2024-03-07T06:24:13;7.93;;;5.78;;
78298;SDS011;67556;55.656;12.590;2024-03-07T06:26:46;9.40;;;6.15;;
78298;SDS011;67556;55.656;12.590;2024-03-07T06:29:15;13.13;;;6.43;;
78298;SDS011;67556;55.656;12.590;2024-03-07T06:31:55;7.93;;;5.68;;
78298;SDS011;67556;55.656;12.590;2024-03-07T06:34:24;9.38;;;5.65;;
78298;SDS011;67556;55.656;12.590;2024-03-07T06:39:29;13.63;;;5.75;;
78298;SDS011;67556;55.656;12.590;2024-03-07T06:41:59;14.98;;;5.90;;
78298;SDS011;67556;55.656;12.590;2024-03-07T06:44:31;10.27;;;5.97;;
78298;SDS011;67556;55.656;12.590;2024-03-07T06:46:58;11.43;;;5.47;;
78298;SDS011;67556;55.656;12.590;2024-03-07T06:49:28;7.60;;;5.43;;
78298;SDS011;67556;55.656;12.590;2024-03-07T06:51:56;10.23;;;6.28;;
78298;SDS011;67556;55.656;12.590;2024-03-07T06:54:26;7.82;;;5.03;;
78298;SDS011;67556;55.656;12.590;2024-03-07T06:56:52;7.28;;;5.15;;
78298;SDS011;67556;55.656;12.590;2024-03-07T06:59:19;8.82;;;5.10;;
78298;SDS011;67556;55.656;12.590;2024-03-07T07:01:47;7.13;;;4.82;;
78298;SDS011;67556;55.656;12.590;2024-03-07T07:04:13;7.70;;;4.88;;
78298;SDS011;67556;55.656;12.590;2024-03-07T07:06:41;9.57;;;5.68;;
78298;SDS011;67556;55.656;12.590;2024-03-07T07:09:09;10.68;;;5.72;;
78298;SDS011;67556;55.656;12.590;2024-03-07T07:11:37;23.00;;;7.93;;
78298;SDS011;67556;55.656;12.590;2024-03-07T07:14:03;19.67;;;6.63;;
78298;SDS011;67556;55.656;12.590;2024-03-07T07:16:36;8.80;;;5.35;;
78298;SDS011;67556;55.656;12.590;2024-03-07T07:19:07;7.80;;;5.32;;
78298;SDS011;67556;55.656;12.590;2024-03-07T07:21:34;16.98;;;6.28;;
78298;SDS011;67556;55.656;12.590;2024-03-07T07:24:04;9.65;;;5.65;;
78298;SDS011;67556;55.656;12.590;2024-03-07T07:26:32;10.93;;;5.78;;
78298;SDS011;67556;55.656;12.590;2024-03-07T07:29:00;10.32;;;5.70;;
78298;SDS011;67556;55.656;12.590;2024-03-07T07:31:27;10.23;;;6.05;;
78298;SDS011;67556;55.656;12.590;2024-03-07T07:34:00;10.32;;;5.18;;
78298;SDS011;67556;55.656;12.590;2024-03-07T07:36:29;8.80;;;5.43;;
78298;SDS011;67556;55.656;12.590;2024-03-07T07:38:57;6.45;;;5.22;;
78298;SDS011;67556;55.656;12.590;2024-03-07T07:41:27;8.30;;;5.38;;
78298;SDS011;67556;55.656;12.590;2024-03-07T07:43:55;12.27;;;6.15;;
78298;SDS011;67556;55.656;12.590;2024-03-07T07:46:22;11.65;;;5.68;;
78298;SDS011;67556;55.656;12.590;2024-03-07T07:48:50;11.02;;;5.68;;
78298;SDS011;67556;55.656;12.590;2024-03-07T07:51:22;11.48;;;5.72;;
78298;SDS011;67556;55.656;12.590;2024-03-07T07:53:50;8.25;;;5.80;;
78298;SDS011;67556;55.656;12.590;2024-03-07T07:56:17;7.57;;;5.18;;
78298;SDS011;67556;55.656;12.590;2024-03-07T07:58:46;8.63;;;5.85;;
78298;SDS011;67556;55.656;12.590;2024-03-07T08:01:12;8.05;;;5.60;;
78298;SDS011;67556;55.656;12.590;2024-03-07T08:03:41;7.35;;;5.32;;
78298;SDS011;67556;55.656;12.590;2024-03-07T08:06:07;7.32;;;5.22;;
78298;SDS011;67556;55.656;12.590;2024-03-07T08:08:34;6.95;;;5.07;;
78298;SDS011;67556;55.656;12.590;2024-03-07T08:11:02;7.70;;;4.93;;
78298;SDS011;67556;55.656;12.590;2024-03-07T08:13:30;8.63;;;5.35;;
78298;SDS011;67556;55.656;12.590;2024-03-07T08:15:58;11.88;;;6.25;;
78298;SDS011;67556;55.656;12.590;2024-03-07T08:18:31;7.85;;;5.55;;
78298;SDS011;67556;55.656;12.590;2024-03-07T08:20:59;10.65;;;5.63;;
78298;SDS011;67556;55.656;12.590;2024-03-07T08:23:26;7.30;;;5.20;;
78298;SDS011;67556;55.656;12.590;2024-03-07T08:25:54;8.52;;;5.68;;
78298;SDS011;67556;55.656;12.590;2024-03-07T08:28:21;8.60;;;4.90;;
78298;SDS011;67556;55.656;12.590;2024-03-07T08:30:49;8.15;;;5.50;;
78298;SDS011;67556;55.656;12.590;2024-03-07T08:33:17;8.43;;;5.18;;
78298;SDS011;67556;55.656;12.590;2024-03-07T08:35:53;8.32;;;6.22;;
78298;SDS011;67556;55.656;12.590;2024-03-07T08:38:19;8.93;;;6.55;;
78298;SDS011;67556;55.656;12.590;2024-03-07T08:40:46;9.27;;;5.60;;
78298;SDS011;67556;55.656;12.590;2024-03-07T08:43:15;9.18;;;5.78;;
78298;SDS011;67556;55.656;12.590;2024-03-07T08:45:57;10.70;;;6.25;;
78298;SDS011;67556;55.656;12.590;2024-03-07T08:48:33;7.97;;;5.78;;
78298;SDS011;67556;55.656;12.590;2024-03-07T08:51:00;11.93;;;7.85;;
78298;SDS011;67556;55.656;12.590;2024-03-07T08:53:38;13.55;;;7.13;;
78298;SDS011;67556;55.656;12.590;2024-03-07T08:56:05;9.23;;;6.28;;
78298;SDS011;67556;55.656;12.590;2024-03-07T08:58:31;9.07;;;6.50;;
78298;SDS011;67556;55.656;12.590;2024-03-07T09:00:59;9.55;;;5.70;;
78298;SDS011;67556;55.656;12.590;2024-03-07T09:03:25;7.90;;;5.88;;
78298;SDS011;67556;55.656;12.590;2024-03-07T09:05:57;8.60;;;5.90;;
78298;SDS011;67556;55.656;12.590;2024-03-07T09:08:30;8.68;;;6.40;;
78298;SDS011;67556;55.656;12.590;2024-03-07T09:10:57;8.00;;;5.70;;
78298;SDS011;67556;55.656;12.590;2024-03-07T09:13:25;6.85;;;5.57;;
78298;SDS011;67556;55.656;12.590;2024-03-07T09:15:54;7.85;;;6.20;;
78298;SDS011;67556;55.656;12.590;2024-03-07T09:18:23;12.60;;;6.00;;
78298;SDS011;67556;55.656;12.590;2024-03-07T09:21:00;12.55;;;7.07;;
78298;SDS011;67556;55.656;12.590;2024-03-07T09:23:39;8.13;;;6.10;;
78298;SDS011;67556;55.656;12.590;2024-03-07T09:26:21;7.63;;;6.32;;
78298;SDS011;67556;55.656;12.590;2024-03-07T09:29:07;10.57;;;7.22;;
78298;SDS011;67556;55.656;12.590;2024-03-07T09:31:33;8.70;;;6.65;;
78298;SDS011;67556;55.656;12.590;2024-03-07T09:34:18;9.07;;;5.57;;
78298;SDS011;67556;55.656;12.590;2024-03-07T09:36:47;8.60;;;5.82;;
78298;SDS011;67556;55.656;12.590;2024-03-07T09:39:37;10.63;;;5.80;;
78298;SDS011;67556;55.656;12.590;2024-03-07T09:42:22;8.27;;;6.43;;
78298;SDS011;67556;55.656;12.590;2024-03-07T09:44:53;8.85;;;5.40;;
78298;SDS011;67556;55.656;12.590;2024-03-07T09:47:42;6.75;;;4.93;;
78298;SDS011;67556;55.656;12.590;2024-03-07T09:50:29;6.15;;;4.93;;
78298;SDS011;67556;55.656;12.590;2024-03-07T09:52:58;7.60;;;5.22;;
78298;SDS011;67556;55.656;12.590;2024-03-07T09:55:43;6.97;;;4.53;;
78298;SDS011;67556;55.656;12.590;2024-03-07T09:58:16;6.10;;;4.70;;
78298;SDS011;67556;55.656;12.590;2024-03-07T10:01:05;6.55;;;4.53;;
78298;SDS011;67556;55.656;12.590;2024-03-07T10:03:36;8.75;;;5.55;;
78298;SDS011;67556;55.656;12.590;2024-03-07T10:06:10;7.68;;;5.43;;
78298;SDS011;67556;55.656;12.590;2024-03-07T10:08:57;8.07;;;4.65;;
78298;SDS011;67556;55.656;12.590;2024-03-07T10:11:24;6.95;;;4.78;;
78298;SDS011;67556;55.656;12.590;2024-03-07T10:14:09;8.07;;;4.57;;
78298;SDS011;67556;55.656;12.590;2024-03-07T10:16:36;6.50;;;4.43;;
78298;SDS011;67556;55.656;12.590;2024-03-07T10:19:22;7.25;;;4.22;;
78298;SDS011;67556;55.656;12.590;2024-03-07T10:21:49;8.32;;;5.05;;
78298;SDS011;67556;55.656;12.590;2024-03-07T10:24:37;7.38;;;4.63;;
78298;SDS011;67556;55.656;12.590;2024-03-07T10:27:03;5.95;;;4.32;;
78298;SDS011;67556;55.656;12.590;2024-03-07T10:29:51;8.43;;;4.95;;
78298;SDS011;67556;55.656;12.590;2024-03-07T10:32:19;9.25;;;6.90;;
78298;SDS011;67556;55.656;12.590;2024-03-07T10:34:55;7.25;;;5.13;;
78298;SDS011;67556;55.656;12.590;2024-03-07T10:37:34;8.13;;;5.18;;
78298;SDS011;67556;55.656;12.590;2024-03-07T10:40:20;9.23;;;4.63;;
78298;SDS011;67556;55.656;12.590;2024-03-07T10:42:48;8.18;;;4.70;;
78298;SDS011;67556;55.656;12.590;2024-03-07T10:45:24;6.80;;;5.07;;
78298;SDS011;67556;55.656;12.590;2024-03-07T10:48:12;8.25;;;5.03;;
78298;SDS011;67556;55.656;12.590;2024-03-07T10:50:42;6.20;;;4.35;;
78298;SDS011;67556;55.656;12.590;2024-03-07T10:53:29;8.07;;;4.38;;
78298;SDS011;67556;55.656;12.590;2024-03-07T10:56:04;6.25;;;4.78;;
78298;SDS011;67556;55.656;12.590;2024-03-07T10:58:56;8.20;;;5.15;;
78298;SDS011;67556;55.656;12.590;2024-03-07T11:01:24;8.52;;;4.72;;
78298;SDS011;67556;55.656;12.590;2024-03-07T11:03:51;8.38;;;5.80;;
78298;SDS011;67556;55.656;12.590;2024-03-07T11:06:36;10.95;;;5.85;;
78298;SDS011;67556;55.656;12.590;2024-03-07T11:09:17;7.18;;;4.95;;
78298;SDS011;67556;55.656;12.590;2024-03-07T11:12:09;8.07;;;4.90;;
78298;SDS011;67556;55.656;12.590;2024-03-07T11:14:36;8.50;;;4.95;;
78298;SDS011;67556;55.656;12.590;2024-03-07T11:17:16;8.45;;;4.93;;
78298;SDS011;67556;55.656;12.590;2024-03-07T11:25:48;5.63;;;4.15;;
78298;SDS011;67556;55.656;12.590;2024-03-07T11:28:35;9.75;;;4.65;;
78298;SDS011;67556;55.656;12.590;2024-03-07T11:31:09;7.20;;;4.45;;
78298;SDS011;67556;55.656;12.590;2024-03-07T11:33:43;6.80;;;4.63;;
78298;SDS011;67556;55.656;12.590;2024-03-07T11:36:49;7.53;;;4.53;;
78298;SDS011;67556;55.656;12.590;2024-03-07T11:42:22;6.00;;;4.20;;
78298;SDS011;67556;55.656;12.590;2024-03-07T11:44:52;5.88;;;4.50;;
78298;SDS011;67556;55.656;12.590;2024-03-07T11:47:39;6.95;;;4.68;;
78298;SDS011;67556;55.656;12.590;2024-03-07T11:50:08;6.63;;;4.60;;
78298;SDS011;67556;55.656;12.590;2024-03-07T11:52:55;6.53;;;4.20;;
78298;SDS011;67556;55.656;12.590;2024-03-07T11:55:21;6.88;;;4.50;;
78298;SDS011;67556;55.656;12.590;2024-03-07T11:58:06;6.60;;;4.47;;
78298;SDS011;67556;55.656;12.590;2024-03-07T12:00:41;6.65;;;4.28;;
78298;SDS011;67556;55.656;12.590;2024-03-07T12:05:56;7.18;;;4.47;;
78298;SDS011;67556;55.656;12.590;2024-03-07T12:08:42;5.57;;;4.45;;
78298;SDS011;67556;55.656;12.590;2024-03-07T12:11:08;8.18;;;4.82;;
78298;SDS011;67556;55.656;12.590;2024-03-07T12:14:00;6.60;;;4.55;;
78298;SDS011;67556;55.656;12.590;2024-03-07T12:16:29;5.53;;;3.78;;
78298;SDS011;67556;55.656;12.590;2024-03-07T12:19:22;7.07;;;4.22;;
78298;SDS011;67556;55.656;12.590;2024-03-07T12:21:50;6.50;;;4.10;;
78298;SDS011;67556;55.656;12.590;2024-03-07T12:24:36;7.68;;;4.40;;
78298;SDS011;67556;55.656;12.590;2024-03-07T12:27:06;6.97;;;4.20;;
78298;SDS011;67556;55.656;12.590;2024-03-07T12:32:20;8.18;;;3.88;;
78298;SDS011;67556;55.656;12.590;2024-03-07T12:35:05;6.38;;;4.32;;
78298;SDS011;67556;55.656;12.590;2024-03-07T12:37:37;7.70;;;4.07;;
78298;SDS011;67556;55.656;12.590;2024-03-07T12:40:25;7.88;;;4.30;;
78298;SDS011;67556;55.656;12.590;2024-03-07T12:42:56;5.45;;;3.92;;
78298;SDS011;67556;55.656;12.590;2024-03-07T12:45:42;6.05;;;4.30;;
78298;SDS011;67556;55.656;12.590;2024-03-07T12:48:13;5.88;;;4.10;;
78298;SDS011;67556;55.656;12.590;2024-03-07T12:50:58;7.00;;;4.80;;
78298;SDS011;67556;55.656;12.590;2024-03-07T12:53:43;6.65;;;4.43;;
78298;SDS011;67556;55.656;12.590;2024-03-07T12:56:30;6.53;;;4.63;;
78298;SDS011;67556;55.656;12.590;2024-03-07T12:59:02;5.60;;;4.22;;
78298;SDS011;67556;55.656;12.590;2024-03-07T13:01:48;6.40;;;3.90;;
78298;SDS011;67556;55.656;12.590;2024-03-07T13:04:16;6.53;;;4.30;;
78298;SDS011;67556;55.656;12.590;2024-03-07T13:06:42;5.72;;;4.63;;
78298;SDS011;67556;55.656;12.590;2024-03-07T13:09:34;5.82;;;4.30;;
78298;SDS011;67556;55.656;12.590;2024-03-07T13:12:12;6.85;;;4.00;;
78298;SDS011;67556;55.656;12.590;2024-03-07T13:17:24;5.43;;;4.18;;
78298;SDS011;67556;55.656;12.590;2024-03-07T13:20:18;7.03;;;4.60;;
78298;SDS011;67556;55.656;12.590;2024-03-07T13:22:47;7.57;;;4.65;;
78298;SDS011;67556;55.656;12.590;2024-03-07T13:25:16;6.18;;;3.97;;
78298;SDS011;67556;55.656;12.590;2024-03-07T13:28:01;6.20;;;3.80;;
78298;SDS011;67556;55.656;12.590;2024-03-07T13:30:29;5.90;;;3.92;;
78298;SDS011;67556;55.656;12.590;2024-03-07T13:33:14;5.03;;;3.97;;
78298;SDS011;67556;55.656;12.590;2024-03-07T13:35:42;5.05;;;3.90;;
78298;SDS011;67556;55.656;12.590;2024-03-07T13:38:27;7.95;;;4.47;;
78298;SDS011;67556;55.656;12.590;2024-03-07T13:40:54;6.45;;;4.57;;
78298;SDS011;67556;55.656;12.590;2024-03-07T13:43:28;6.45;;;3.97;;
78298;SDS011;67556;55.656;12.590;2024-03-07T13:46:05;6.30;;;4.22;;
78298;SDS011;67556;55.656;12.590;2024-03-07T13:48:50;5.55;;;3.88;;
78298;SDS011;67556;55.656;12.590;2024-03-07T13:51:19;5.53;;;4.20;;
78298;SDS011;67556;55.656;12.590;2024-03-07T13:53:53;5.82;;;3.90;;
78298;SDS011;67556;55.656;12.590;2024-03-07T13:56:54;6.57;;;4.15;;
78298;SDS011;67556;55.656;12.590;2024-03-07T13:59:34;6.05;;;4.03;;
78298;SDS011;67556;55.656;12.590;2024-03-07T14:05:34;6.72;;;4.10;;
78298;SDS011;67556;55.656;12.590;2024-03-07T14:08:15;5.85;;;4.03;;
78298;SDS011;67556;55.656;12.590;2024-03-07T14:11:14;5.28;;;3.70;;
78298;SDS011;67556;55.656;12.590;2024-03-07T14:13:49;5.38;;;4.32;;
78298;SDS011;67556;55.656;12.590;2024-03-07T14:16:56;5.95;;;3.67;;
78298;SDS011;67556;55.656;12.590;2024-03-07T14:19:37;6.00;;;3.70;;
78298;SDS011;67556;55.656;12.590;2024-03-07T14:22:41;6.75;;;4.78;;
78298;SDS011;67556;55.656;12.590;2024-03-07T14:28:34;6.45;;;4.30;;
78298;SDS011;67556;55.656;12.590;2024-03-07T14:31:05;5.90;;;4.32;;
78298;SDS011;67556;55.656;12.590;2024-03-07T14:33:35;6.65;;;4.22;;
78298;SDS011;67556;55.656;12.590;2024-03-07T14:36:34;4.90;;;3.95;;
78298;SDS011;67556;55.656;12.590;2024-03-07T14:39:02;5.53;;;4.72;;
78298;SDS011;67556;55.656;12.590;2024-03-07T14:41:45;4.60;;;3.35;;
78298;SDS011;67556;55.656;12.590;2024-03-07T14:44:15;5.43;;;3.92;;
78298;SDS011;67556;55.656;12.590;2024-03-07T14:46:45;5.45;;;3.65;;
78298;SDS011;67556;55.656;12.590;2024-03-07T14:49:30;6.55;;;4.30;;
78298;SDS011;67556;55.656;12.590;2024-03-07T14:51:57;5.68;;;3.30;;
78298;SDS011;67556;55.656;12.590;2024-03-07T14:54:42;5.05;;;3.92;;
78298;SDS011;67556;55.656;12.590;2024-03-07T14:57:09;4.78;;;3.50;;
78298;SDS011;67556;55.656;12.590;2024-03-07T14:59:55;3.88;;;3.35;;
78298;SDS011;67556;55.656;12.590;2024-03-07T15:02:41;5.25;;;3.75;;
78298;SDS011;67556;55.656;12.590;2024-03-07T15:05:08;3.80;;;3.30;;
78298;SDS011;67556;55.656;12.590;2024-03-07T15:07:53;5.10;;;3.60;;
78298;SDS011;67556;55.656;12.590;2024-03-07T15:10:21;5.47;;;3.38;;
78298;SDS011;67556;55.656;12.590;2024-03-07T15:13:07;5.10;;;3.80;;
78298;SDS011;67556;55.656;12.590;2024-03-07T15:15:38;6.65;;;3.80;;
78298;SDS011;67556;55.656;12.590;2024-03-07T15:18:23;5.85;;;3.92;;
78298;SDS011;67556;55.656;12.590;2024-03-07T15:20:53;5.20;;;3.67;;
78298;SDS011;67556;55.656;12.590;2024-03-07T15:23:46;5.75;;;4.03;;
78298;SDS011;67556;55.656;12.590;2024-03-07T15:26:12;5.50;;;3.83;;
78298;SDS011;67556;55.656;12.590;2024-03-07T15:28:55;4.63;;;3.67;;
78298;SDS011;67556;55.656;12.590;2024-03-07T15:31:42;9.57;;;4.90;;
78298;SDS011;67556;55.656;12.590;2024-03-07T15:34:11;8.30;;;3.75;;